Time;durP1;ratioP1;P1;durP2;ratioP2;P2;SDS_P1;SDS_P2;PMS_P1;PMS_P2;Temp;Humidity;BMP_temperature;BMP_pressure;BME280_temperature;BME280_humidity;BME280_pressure;Samples;Min_cycle;Max_cycle;Signal;HPM_P1;HPM_P2
2023/04/23 00:01:58;;;;;;;14.60;8.10;;;;;;;5.70;100.00;100728.02;105997;1255;62155;-51
2023/04/23 00:04:27;;;;;;;12.10;9.10;;;;;;;5.70;100.00;100730.95;105831;1256;75435;-52
2023/04/23 00:06:56;;;;;;;13.60;7.50;;;;;;;5.73;100.00;100733.85;105985;1256;65320;-53
2023/04/23 00:09:25;;;;;;;9.80;7.60;;;;;;;5.72;100.00;100731.96;105795;1253;73872;-53
2023/04/23 00:11:53;;;;;;;10.70;7.70;;;;;;;5.68;100.00;100735.70;105728;1258;63228;-55
2023/04/23 00:14:22;;;;;;;11.30;8.40;;;;;;;5.60;100.00;100736.17;105718;1254;61633;-51
2023/04/23 00:16:51;;;;;;;15.90;7.00;;;;;;;5.52;100.00;100740.05;105906;1254;75063;-54
2023/04/23 00:19:19;;;;;;;14.50;10.90;;;;;;;5.45;100.00;100741.05;105996;1254;66201;-55
2023/04/23 00:21:48;;;;;;;18.40;8.50;;;;;;;5.40;100.00;100741.50;105971;1256;74540;-52
2023/04/23 00:24:16;;;;;;;10.50;7.40;;;;;;;5.32;100.00;100740.25;105948;1255;63230;-50
2023/04/23 00:26:45;;;;;;;12.50;8.00;;;;;;;5.27;100.00;100737.81;105988;1251;61776;-50
2023/04/23 00:29:13;;;;;;;8.20;7.20;;;;;;;5.25;100.00;100740.54;105919;1255;74294;-51
2023/04/23 00:31:41;;;;;;;10.50;7.40;;;;;;;5.23;100.00;100742.06;105925;1256;66024;-50
2023/04/23 00:34:10;;;;;;;10.20;7.40;;;;;;;5.22;100.00;100738.46;105962;1256;73168;-51
2023/04/23 00:36:38;;;;;;;25.30;9.00;;;;;;;5.23;100.00;100741.21;105962;1256;62263;-51
2023/04/23 00:39:07;;;;;;;13.00;8.20;;;;;;;5.18;100.00;100741.00;106005;1254;61573;-50
2023/04/23 00:41:36;;;;;;;21.30;12.80;;;;;;;5.05;100.00;100737.81;105886;1253;75317;-52
2023/04/23 00:44:04;;;;;;;11.80;8.10;;;;;;;4.96;100.00;100738.92;105936;1257;65888;-51
2023/04/23 00:46:32;;;;;;;71.40;43.20;;;;;;;4.88;100.00;100739.70;105841;1254;74014;-51
2023/04/23 00:49:01;;;;;;;30.50;18.40;;;;;;;4.80;100.00;100744.06;105688;1258;63461;-51
2023/04/23 00:51:30;;;;;;;16.30;9.50;;;;;;;4.72;100.00;100742.29;105970;1253;61435;-51
2023/04/23 00:53:59;;;;;;;13.60;8.80;;;;;;;4.71;100.00;100744.50;105997;1253;75046;-50
2023/04/23 00:56:28;;;;;;;16.00;10.70;;;;;;;4.69;100.00;100741.73;105979;1256;66030;-51
2023/04/23 00:58:56;;;;;;;14.20;10.90;;;;;;;4.66;100.00;100741.34;105928;1254;74205;-51
2023/04/23 01:01:24;;;;;;;14.30;11.20;;;;;;;4.67;100.00;100740.52;105905;1257;63111;-51
2023/04/23 01:03:55;;;;;;;18.10;9.80;;;;;;;4.73;100.00;100737.16;105950;1257;61788;-51
2023/04/23 01:06:27;;;;;;;29.40;15.70;;;;;;;4.78;100.00;100733.79;105949;1257;75356;-51
2023/04/23 01:08:56;;;;;;;36.10;22.70;;;;;;;4.79;100.00;100738.93;105906;1257;66141;-51
2023/04/23 01:11:24;;;;;;;44.50;29.30;;;;;;;4.78;100.00;100745.40;105882;1257;74136;-51
2023/04/23 01:13:53;;;;;;;14.40;11.20;;;;;;;4.73;100.00;100747.25;105892;1256;63338;-51
2023/04/23 01:16:22;;;;;;;15.10;9.30;;;;;;;4.70;100.00;100748.92;105945;1256;61519;-51
2023/04/23 01:18:52;;;;;;;25.10;10.30;;;;;;;4.70;100.00;100742.10;105930;1252;75365;-51
2023/04/23 01:21:21;;;;;;;18.30;11.00;;;;;;;4.68;100.00;100740.88;105929;1257;66054;-51
2023/04/23 01:23:49;;;;;;;28.30;16.70;;;;;;;4.59;100.00;100739.59;105910;1256;73927;-50
2023/04/23 01:26:18;;;;;;;16.10;10.20;;;;;;;4.50;100.00;100742.56;106008;1256;61186;-51
2023/04/23 01:28:46;;;;;;;21.00;10.60;;;;;;;4.47;100.00;100747.66;105938;1255;61616;-51
2023/04/23 01:31:16;;;;;;;17.50;8.90;;;;;;;4.39;100.00;100748.25;105882;1256;75367;-51
2023/04/23 01:33:44;;;;;;;75.70;41.10;;;;;;;4.26;100.00;100744.84;105939;1257;65913;-51
2023/04/23 01:36:13;;;;;;;17.80;9.20;;;;;;;4.17;100.00;100743.02;105963;1256;74010;-51
2023/04/23 01:38:41;;;;;;;16.80;11.00;;;;;;;4.19;100.00;100746.65;105831;1257;63508;-51
2023/04/23 01:41:10;;;;;;;11.50;9.10;;;;;;;4.27;100.00;100743.64;105765;1255;61530;-51
2023/04/23 01:43:39;;;;;;;62.20;49.00;;;;;;;4.32;100.00;100743.89;105805;1251;75102;-51
2023/04/23 01:46:07;;;;;;;17.90;11.70;;;;;;;4.33;100.00;100742.38;105957;1264;64935;-51
2023/04/23 01:48:36;;;;;;;14.60;8.40;;;;;;;4.29;100.00;100746.77;105806;1254;72757;-51
2023/04/23 01:51:05;;;;;;;16.40;8.80;;;;;;;4.26;100.00;100747.41;105925;1256;63336;-51
2023/04/23 01:53:33;;;;;;;13.80;8.60;;;;;;;4.27;100.00;100745.73;105957;1251;61689;-51
2023/04/23 01:56:02;;;;;;;14.00;9.10;;;;;;;4.34;100.00;100745.63;105899;1251;75324;-51
2023/04/23 01:58:30;;;;;;;14.70;9.10;;;;;;;4.40;100.00;100749.96;105715;1259;65948;-51
2023/04/23 02:00:59;;;;;;;12.90;10.20;;;;;;;4.42;100.00;100749.81;106062;1254;74013;-51
2023/04/23 02:03:32;;;;;;;12.30;8.40;;;;;;;4.41;100.00;100750.14;105894;1256;63513;-51
2023/04/23 02:06:03;;;;;;;10.90;8.90;;;;;;;4.40;100.00;100751.33;105951;1253;61627;-51
2023/04/23 02:08:32;;;;;;;14.40;8.50;;;;;;;4.40;100.00;100746.03;105965;1251;74697;-50
2023/04/23 02:11:01;;;;;;;9.40;8.10;;;;;;;4.39;100.00;100749.77;106008;1260;64981;-51
2023/04/23 02:13:31;;;;;;;11.60;8.50;;;;;;;4.40;100.00;100754.92;105970;1257;74150;-51
2023/04/23 02:15:59;;;;;;;16.50;7.80;;;;;;;4.39;100.00;100751.33;105969;1251;64108;-50
2023/04/23 02:18:29;;;;;;;11.70;7.70;;;;;;;4.35;100.00;100747.68;105898;1257;61601;-50
2023/04/23 02:20:58;;;;;;;13.80;9.30;;;;;;;4.31;100.00;100750.38;105914;1254;75413;-51
2023/04/23 02:23:27;;;;;;;11.10;8.30;;;;;;;4.29;100.00;100751.72;105989;1255;65303;-51
2023/04/23 02:25:56;;;;;;;8.10;7.10;;;;;;;4.30;100.00;100759.42;105930;1252;73823;-49
2023/04/23 02:28:25;;;;;;;10.20;7.50;;;;;;;4.28;100.00;100757.00;105936;1256;63118;-51
2023/04/23 02:30:53;;;;;;;17.80;8.40;;;;;;;4.23;100.00;100752.66;105970;1257;61723;-51
2023/04/23 02:33:24;;;;;;;8.70;7.80;;;;;;;4.19;100.00;100764.94;105794;1251;75435;-50
2023/04/23 02:35:53;;;;;;;9.00;6.70;;;;;;;4.18;100.00;100768.34;105947;1256;66703;-50
2023/04/23 02:38:22;;;;;;;11.80;8.00;;;;;;;4.15;100.00;100766.41;106069;1256;73214;-50
2023/04/23 02:40:51;;;;;;;10.60;7.80;;;;;;;4.12;100.00;100768.58;105926;1256;63133;-50
2023/04/23 02:43:21;;;;;;;15.90;8.40;;;;;;;4.11;100.00;100762.08;105911;1254;61818;-49
2023/04/23 02:45:49;;;;;;;10.60;7.30;;;;;;;4.16;100.00;100765.39;106088;1256;75289;-50
2023/04/23 02:48:21;;;;;;;8.80;7.90;;;;;;;4.21;100.00;100770.25;105959;1255;66191;-50
2023/04/23 02:50:50;;;;;;;15.10;8.70;;;;;;;4.22;100.00;100769.05;105968;1256;72449;-50
2023/04/23 02:53:18;;;;;;;12.00;10.10;;;;;;;4.20;100.00;100773.65;105764;1254;62503;-50
2023/04/23 02:55:46;;;;;;;16.30;8.10;;;;;;;4.15;100.00;100772.89;105981;1251;61752;-50
2023/04/23 02:58:15;;;;;;;16.90;12.60;;;;;;;4.13;100.00;100777.81;105951;1256;75363;-50
2023/04/23 03:00:44;;;;;;;14.10;7.80;;;;;;;4.11;100.00;100778.31;105932;1257;65673;-49
2023/04/23 03:20:00;;;;;;;6.60;5.50;;;;;;;4.05;100.00;100800.44;103622;1282;600969;-50
2023/04/23 03:22:29;;;;;;;9.10;5.50;;;;;;;4.05;100.00;100797.00;105142;1268;63218;-49
2023/04/23 03:24:58;;;;;;;9.80;5.30;;;;;;;4.06;100.00;100807.11;105255;1264;61576;-50
2023/04/23 03:27:26;;;;;;;9.50;6.30;;;;;;;4.10;100.00;100807.84;105018;1269;73732;-50
2023/04/23 03:29:55;;;;;;;10.90;6.30;;;;;;;4.13;100.00;100802.92;105182;1269;66009;-50
2023/04/23 03:32:24;;;;;;;8.00;5.80;;;;;;;4.18;100.00;100803.86;105033;1264;74168;-51
2023/04/23 03:34:53;;;;;;;10.40;6.10;;;;;;;4.25;100.00;100801.90;105040;1263;60858;-50
2023/04/23 03:37:23;;;;;;;9.20;7.00;;;;;;;4.37;100.00;100805.81;105216;1264;61770;-50
2023/04/23 03:39:52;;;;;;;10.60;6.70;;;;;;;4.51;100.00;100809.57;105225;1266;72598;-50
2023/04/23 03:42:21;;;;;;;10.10;6.90;;;;;;;4.66;100.00;100809.23;105315;1266;66348;-51
2023/04/23 03:44:49;;;;;;;8.10;6.50;;;;;;;4.83;100.00;100808.40;105318;1264;72910;-50
2023/04/23 03:47:18;;;;;;;7.40;6.20;;;;;;;5.02;100.00;100808.94;105185;1266;63385;-50
2023/04/23 03:49:46;;;;;;;11.90;6.40;;;;;;;5.18;100.00;100813.02;105206;1264;61593;-51
2023/04/23 03:52:15;;;;;;;12.20;6.30;;;;;;;5.35;100.00;100815.60;105221;1264;74375;-51
2023/04/23 03:54:43;;;;;;;10.00;6.80;;;;;;;5.58;100.00;100816.11;105212;1266;66400;-50
2023/04/23 03:57:16;;;;;;;7.50;6.00;;;;;;;5.83;100.00;100816.64;105254;1264;74049;-51
2023/04/23 04:00:00;;;;;;;13.80;6.00;;;;;;;6.07;100.00;100817.16;105213;1266;63342;-51
2023/04/23 04:02:29;;;;;;;11.60;5.50;;;;;;;6.25;100.00;100820.53;105240;1264;61623;-51
2023/04/23 04:04:58;;;;;;;7.40;5.20;;;;;;;6.48;100.00;100822.00;105204;1264;74564;-51
2023/04/23 04:07:28;;;;;;;11.20;5.00;;;;;;;6.66;100.00;100824.48;105222;1264;64907;-51
2023/04/23 04:09:57;;;;;;;7.80;5.50;;;;;;;6.80;100.00;100822.29;105253;1264;74158;-51
2023/04/23 04:12:26;;;;;;;6.30;5.20;;;;;;;6.98;100.00;100819.26;105231;1266;63199;-53
2023/04/23 04:14:55;;;;;;;9.20;5.50;;;;;;;7.10;100.00;100823.23;105266;1264;61557;-53
2023/04/23 04:17:23;;;;;;;21.20;6.30;;;;;;;7.25;100.00;100824.11;105201;1264;74243;-54
2023/04/23 04:19:52;;;;;;;8.20;5.50;;;;;;;7.47;100.00;100823.79;105330;1268;64980;-56
2023/04/23 04:22:20;;;;;;;8.10;6.10;;;;;;;7.68;100.00;100824.98;105165;1263;74262;-51
2023/04/23 04:24:51;;;;;;;10.50;6.50;;;;;;;7.84;100.00;100829.09;105634;1258;63213;-53
2023/04/23 04:27:20;;;;;;;12.50;6.60;;;;;;;7.91;100.00;100830.80;105602;1257;61602;-55
2023/04/23 04:29:48;;;;;;;14.40;7.70;;;;;;;8.04;100.00;100831.14;105610;1257;73480;-55
2023/04/23 04:32:16;;;;;;;9.90;6.50;;;;;;;8.21;100.00;100830.23;105643;1260;66185;-51
2023/04/23 04:34:45;;;;;;;15.40;6.90;;;;;;;8.33;100.00;100831.58;105586;1257;73917;-51
2023/04/23 04:37:14;;;;;;;14.90;7.30;;;;;;;8.44;100.00;100837.04;105687;1257;62512;-51
2023/04/23 04:39:42;;;;;;;11.70;7.40;;;;;;;8.57;100.00;100839.60;105643;1258;61660;-51
2023/04/23 04:42:11;;;;;;;11.60;7.70;;;;;;;8.66;100.00;100842.66;105907;1254;74379;-51
2023/04/23 04:44:41;;;;;;;13.90;7.90;;;;;;;8.71;100.00;100845.73;105903;1254;66154;-52
2023/04/23 04:47:12;;;;;;;12.00;7.10;;;;;;;8.82;100.00;100844.48;105886;1254;73971;-52
2023/04/23 04:49:40;;;;;;;16.20;7.20;;;;;;;8.92;100.00;100849.41;105946;1256;63510;-51
2023/04/23 04:52:09;;;;;;;11.50;7.50;;;;;;;9.02;100.00;100852.31;105907;1253;61766;-51
2023/04/23 04:54:37;;;;;;;14.00;7.10;;;;;;;9.09;100.00;100853.12;105918;1254;74169;-53
2023/04/23 04:57:06;;;;;;;10.10;6.50;;;;;;;9.24;100.00;100860.27;105927;1256;66313;-55
2023/04/23 05:00:50;;;;;;;10.70;6.60;;;;;;;9.44;100.00;100870.48;102470;1291;599655;-54
2023/04/23 05:03:20;;;;;;;13.10;6.50;;;;;;;9.49;100.00;100873.18;104746;1279;62262;-55
2023/04/23 05:05:49;;;;;;;15.80;6.80;;;;;;;9.58;100.00;100872.42;104876;1267;59801;-54
2023/04/23 05:08:17;;;;;;;12.50;6.90;;;;;;;9.74;100.00;100879.02;104877;1267;73840;-56
2023/04/23 05:10:46;;;;;;;12.10;6.90;;;;;;;9.92;100.00;100884.56;104880;1267;66896;-52
2023/04/23 05:13:14;;;;;;;12.50;6.20;;;;;;;10.03;100.00;100892.91;104870;1270;74182;-53
2023/04/23 05:15:43;;;;;;;17.90;7.40;;;;;;;10.07;100.00;100901.50;104950;1270;62576;-52
2023/04/23 05:18:11;;;;;;;13.40;6.70;;;;;;;10.13;100.00;100909.55;104812;1270;61868;-53
2023/04/23 05:20:40;;;;;;;12.80;6.90;;;;;;;10.24;100.00;100926.01;105237;1269;73842;-52
2023/04/23 05:23:08;;;;;;;11.50;7.30;;;;;;;10.36;100.00;100941.08;105165;1269;66177;-53
2023/04/23 05:25:37;;;;;;;16.80;6.60;;;;;;;10.42;100.00;100970.89;105117;1264;74232;-53
2023/04/23 05:28:07;;;;;;;19.60;7.30;;;;;;;10.45;100.00;101011.92;105173;1270;63555;-53
2023/04/23 05:30:36;;;;;;;12.20;6.80;;;;;;;10.47;100.00;101066.77;105213;1263;61701;-53
2023/04/23 05:33:04;;;;;;;18.90;8.10;;;;;;;10.47;100.00;101132.88;104860;1269;74435;-52
2023/04/23 05:35:33;;;;;;;16.20;7.10;;;;;;;10.46;100.00;101207.08;105172;1273;65356;-53
2023/04/23 05:38:02;;;;;;;14.90;7.10;;;;;;;10.50;100.00;101272.81;105169;1264;74245;-53
2023/04/23 05:40:30;;;;;;;15.30;6.90;;;;;;;10.46;100.00;101345.30;105209;1270;63297;-53
2023/04/23 05:42:58;;;;;;;15.30;6.90;;;;;;;10.36;100.00;101357.55;105705;1254;61629;-53
2023/04/23 05:45:27;;;;;;;17.60;7.50;;;;;;;10.35;100.00;101287.33;105839;1257;74630;-53
2023/04/23 05:47:55;;;;;;;11.90;7.50;;;;;;;10.38;100.00;101198.81;105912;1256;66126;-52
2023/04/23 05:50:24;;;;;;;9.90;7.60;;;;;;;10.45;100.00;101094.41;105864;1256;74151;-52
2023/04/23 05:52:52;;;;;;;25.10;8.70;;;;;;;10.57;100.00;101028.90;105858;1256;63528;-52
2023/04/23 05:55:22;;;;;;;9.10;7.50;;;;;;;10.66;100.00;100984.98;105901;1253;61514;-52
2023/04/23 05:57:50;;;;;;;25.40;8.00;;;;;;;10.80;100.00;100946.70;105853;1257;74254;-52
2023/04/23 06:00:19;;;;;;;43.60;23.50;;;;;;;10.97;100.00;100928.88;105923;1257;65373;-53
2023/04/23 06:02:48;;;;;;;193.90;145.10;;;;;;;11.18;100.00;100927.39;105839;1254;74120;-52
2023/04/23 06:05:16;;;;;;;14.20;8.60;;;;;;;11.34;100.00;100919.91;105855;1257;62504;-52
2023/04/23 06:07:45;;;;;;;60.10;35.00;;;;;;;11.41;100.00;100882.31;105925;1254;61957;-52
2023/04/23 06:10:14;;;;;;;20.50;8.50;;;;;;;11.47;100.00;100825.52;105870;1257;74580;-51
2023/04/23 06:12:42;;;;;;;76.00;52.90;;;;;;;11.51;100.00;100829.98;105870;1257;65948;-52
2023/04/23 06:18:40;;;;;;;13.80;8.70;;;;;;;11.66;100.00;100814.52;102727;1290;600214;-53
2023/04/23 06:21:09;;;;;;;13.20;8.20;;;;;;;11.70;100.00;100797.49;105133;1264;60998;-52
2023/04/23 06:23:37;;;;;;;181.20;133.70;;;;;;;11.74;100.00;100797.77;105112;1266;61734;-51
2023/04/23 06:26:06;;;;;;;60.70;42.60;;;;;;;11.72;100.00;100731.77;105118;1264;73605;-54
2023/04/23 06:28:34;;;;;;;23.80;15.00;;;;;;;11.83;100.00;100650.98;105099;1267;66193;-53
2023/04/23 06:31:26;;;;;;;77.40;49.30;;;;;;;11.99;100.00;100576.80;104697;1262;436621;-53
2023/04/23 06:33:55;;;;;;;91.00;60.70;;;;;;;12.19;100.00;100526.05;105236;1263;62843;-53
2023/04/23 06:36:24;;;;;;;22.70;11.50;;;;;;;12.40;100.00;100495.78;105274;1264;61839;-52
2023/04/23 06:38:52;;;;;;;30.00;18.80;;;;;;;12.51;100.00;100462.95;105219;1263;73756;-53
2023/04/23 06:41:20;;;;;;;206.40;149.60;;;;;;;12.49;100.00;100466.64;105247;1265;65892;-53
2023/04/23 06:44:00;;;;;;;19.30;9.90;;;;;;;12.49;100.00;100420.08;105128;1263;74009;-53
2023/04/23 06:46:33;;;;;;;14.40;9.20;;;;;;;12.48;100.00;100408.33;105224;1265;61788;-52
2023/04/23 06:49:01;;;;;;;40.00;26.90;;;;;;;12.48;100.00;100412.85;105231;1262;61486;-53
2023/04/23 06:51:31;;;;;;;127.90;102.60;;;;;;;12.44;100.00;100416.59;105221;1266;74585;-52
2023/04/23 06:53:59;;;;;;;153.20;128.20;;;;;;;12.52;100.00;100432.83;105206;1266;65888;-53
2023/04/23 06:56:28;;;;;;;26.80;15.50;;;;;;;12.60;100.00;100429.48;105237;1263;74202;-53
2023/04/23 06:58:56;;;;;;;20.40;11.90;;;;;;;12.65;100.00;100442.50;105171;1265;61640;-51
2023/04/23 07:01:25;;;;;;;20.00;11.10;;;;;;;12.78;100.00;100443.38;105194;1262;61759;-50
2023/04/23 07:03:54;;;;;;;386.20;344.30;;;;;;;12.84;100.00;100466.43;105199;1263;74357;-52
2023/04/23 07:06:22;;;;;;;17.30;13.50;;;;;;;12.95;100.00;100487.77;105260;1265;66202;-52
2023/04/23 07:08:51;;;;;;;39.10;31.40;;;;;;;13.04;100.00;100503.96;105232;1264;73931;-51
2023/04/23 07:11:19;;;;;;;22.50;14.60;;;;;;;13.14;100.00;100519.45;105172;1271;63274;-51
2023/04/23 07:13:47;;;;;;;19.60;12.00;;;;;;;13.30;100.00;100516.92;105258;1263;61696;-53
2023/04/23 07:16:16;;;;;;;16.40;10.30;;;;;;;13.43;100.00;100525.06;105179;1264;74669;-53
2023/04/23 07:18:48;;;;;;;19.10;13.20;;;;;;;13.52;100.00;100537.30;105893;1255;66156;-51
2023/04/23 07:21:16;;;;;;;28.90;16.00;;;;;;;13.63;100.00;100548.40;105927;1256;72879;-52
2023/04/23 07:23:45;;;;;;;32.20;15.40;;;;;;;13.83;100.00;100544.18;105917;1256;61661;-52
2023/04/23 07:26:15;;;;;;;19.70;11.10;;;;;;;14.03;100.00;100557.45;105898;1255;60307;-52
2023/04/23 07:28:45;;;;;;;41.60;23.80;;;;;;;14.06;100.00;100591.17;105950;1255;73742;-53
2023/04/23 07:31:13;;;;;;;23.50;10.70;;;;;;;14.16;100.00;100599.41;105822;1256;66344;-53
2023/04/23 07:33:42;;;;;;;11.80;8.70;;;;;;;14.29;100.00;100621.22;105879;1253;74242;-52
2023/04/23 07:36:11;;;;;;;12.10;8.60;;;;;;;14.36;100.00;100659.50;105871;1257;62345;-52
2023/04/23 07:38:40;;;;;;;21.30;8.20;;;;;;;14.47;100.00;100693.75;105748;1253;61671;-52
2023/04/23 07:41:08;;;;;;;12.80;8.80;;;;;;;14.68;100.00;100715.34;105895;1253;74503;-53
2023/04/23 07:43:37;;;;;;;49.20;32.30;;;;;;;14.85;100.00;100751.13;105886;1253;64994;-52
2023/04/23 07:46:07;;;;;;;13.40;8.10;;;;;;;15.11;100.00;100773.61;105870;1253;73154;-52
2023/04/23 07:48:35;;;;;;;13.00;8.50;;;;;;;15.28;100.00;100787.48;105863;1253;60792;-52
2023/04/23 08:20:17;;;;;;;21.90;13.40;;;;;;;17.50;71.10;100862.69;102522;1292;601442;-60
2023/04/23 08:22:46;;;;;;;15.30;10.90;;;;;;;17.67;69.01;100853.43;104789;1266;62086;-55
2023/04/23 08:25:14;;;;;;;26.30;20.60;;;;;;;17.81;66.16;100845.04;104868;1271;61663;-55
2023/04/23 08:27:45;;;;;;;29.20;20.10;;;;;;;17.98;64.56;100845.02;104953;1265;73578;-54
2023/04/23 08:30:13;;;;;;;10.60;7.10;;;;;;;18.20;62.34;100828.16;104892;1267;65973;-55
2023/04/23 08:32:42;;;;;;;9.00;5.80;;;;;;;18.28;60.74;100830.08;104807;1270;73966;-54
2023/04/23 08:35:11;;;;;;;7.70;4.30;;;;;;;18.35;60.73;100843.59;104936;1269;60238;-53
2023/04/23 08:37:40;;;;;;;12.00;5.90;;;;;;;18.48;57.01;100770.81;105267;1263;60394;-52
2023/04/23 08:40:09;;;;;;;63.70;50.60;;;;;;;18.77;53.88;100715.27;105225;1266;73430;-53
2023/04/23 08:42:42;;;;;;;5.40;4.90;;;;;;;19.07;52.80;100703.88;105248;1266;66046;-53
2023/04/23 08:45:11;;;;;;;5.60;3.30;;;;;;;19.18;53.47;100745.48;105198;1262;74459;-54
2023/04/23 08:47:41;;;;;;;11.80;5.50;;;;;;;19.20;51.76;100709.88;105236;1266;60930;-53
2023/04/23 08:50:11;;;;;;;12.40;10.60;;;;;;;19.10;52.11;100740.84;105248;1265;60565;-55
2023/04/23 08:52:43;;;;;;;6.20;2.90;;;;;;;18.97;44.18;100361.34;105229;1261;74508;-54
2023/04/23 08:55:13;;;;;;;3.90;3.20;;;;;;;19.06;42.63;100300.35;105615;1262;65412;-52
2023/04/23 08:57:42;;;;;;;9.20;3.40;;;;;;;19.16;41.08;100222.85;105491;1262;72882;-52
2023/04/23 09:00:11;;;;;;;17.90;14.90;;;;;;;19.43;44.10;100420.20;105718;1261;61860;-52
2023/04/23 09:02:41;;;;;;;8.70;4.80;;;;;;;19.79;48.03;100671.20;105796;1258;60184;-55
2023/04/23 09:05:10;;;;;;;6.70;3.60;;;;;;;19.90;45.74;100539.44;105884;1252;73680;-54
2023/04/23 09:07:38;;;;;;;6.60;3.40;;;;;;;20.03;45.61;100534.52;105906;1255;65018;-54
2023/04/23 09:10:09;;;;;;;9.90;3.80;;;;;;;20.18;43.16;100390.73;105795;1257;74229;-54
2023/04/23 09:12:39;;;;;;;9.10;4.10;;;;;;;19.95;43.26;100428.15;105780;1259;61123;-54
2023/04/23 09:15:11;;;;;;;74.30;66.50;;;;;;;19.72;43.65;100468.27;105805;1257;61925;-54
2023/04/23 09:17:43;;;;;;;5.80;4.00;;;;;;;19.61;42.53;100406.05;105848;1257;73491;-54
2023/04/23 09:20:13;;;;;;;7.90;4.80;;;;;;;19.54;41.74;100360.23;105976;1256;66294;-53
2023/04/23 09:22:44;;;;;;;3.00;2.80;;;;;;;19.45;40.52;100297.61;105895;1254;74169;-54
2023/04/23 09:25:16;;;;;;;11.80;3.20;;;;;;;19.34;39.95;100259.22;105873;1255;62266;-53
2023/04/23 09:27:46;;;;;;;6.70;2.60;;;;;;;19.26;39.85;100260.20;105871;1256;61452;-54
2023/04/23 09:30:15;;;;;;;9.60;2.80;;;;;;;19.11;39.43;100256.02;105885;1259;74592;-54
2023/04/23 09:32:48;;;;;;;8.30;3.70;;;;;;;18.95;40.33;100314.92;105853;1257;65354;-53
2023/04/23 09:35:20;;;;;;;6.00;4.30;;;;;;;18.86;40.43;100332.70;105835;1255;73164;-54
2023/04/23 09:37:51;;;;;;;4.20;2.40;;;;;;;18.74;39.84;100310.11;105798;1259;61687;-53
2023/04/23 09:40:24;;;;;;;6.70;2.30;;;;;;;18.59;40.22;100333.84;105839;1257;60575;-54
2023/04/23 09:42:53;;;;;;;7.70;2.40;;;;;;;18.48;40.80;100375.80;105732;1260;74210;-54
2023/04/23 09:45:24;;;;;;;8.80;4.30;;;;;;;18.39;40.69;100381.88;105857;1257;66167;-54
2023/04/23 09:47:54;;;;;;;7.30;4.90;;;;;;;18.30;40.92;100399.99;105868;1254;73717;-54
2023/04/23 09:50:38;;;;;;;3.90;2.90;;;;;;;18.24;40.84;100391.90;105931;1257;61450;-53
2023/04/23 09:53:08;;;;;;;14.70;6.90;;;;;;;18.18;40.39;100376.13;105889;1258;61204;-53
2023/04/23 09:55:37;;;;;;;7.70;4.00;;;;;;;18.05;40.12;100364.73;105922;1257;73628;-53
2023/04/23 09:58:10;;;;;;;12.00;2.20;;;;;;;17.87;40.39;100374.54;105857;1257;65887;-53
2023/04/23 10:00:38;;;;;;;9.00;2.80;;;;;;;17.69;40.83;100416.27;105873;1257;73365;-53
2023/04/23 10:03:08;;;;;;;4.10;2.40;;;;;;;17.55;41.54;100460.88;105871;1259;61681;-53
2023/04/23 10:05:42;;;;;;;4.20;2.40;;;;;;;17.46;41.68;100482.23;105863;1254;59893;-53
2023/04/23 10:08:14;;;;;;;2.30;2.00;;;;;;;17.33;40.59;100429.48;105908;1256;74582;-54
2023/04/23 10:10:44;;;;;;;8.30;5.30;;;;;;;17.20;40.26;100410.88;105951;1257;66066;-51
2023/04/23 10:13:30;;;;;;;5.40;4.10;;;;;;;17.16;39.93;100399.74;105892;1257;73983;-54
2023/04/23 10:15:59;;;;;;;4.50;2.70;;;;;;;17.13;40.55;100428.45;105862;1254;60825;-53
2023/04/23 10:18:49;;;;;;;8.40;2.00;;;;;;;17.16;40.66;100439.64;105873;1254;60654;-53
2023/04/23 10:21:17;;;;;;;4.20;2.10;;;;;;;17.16;40.68;100446.95;105895;1254;74259;-53
2023/04/23 10:23:46;;;;;;;4.20;2.20;;;;;;;17.15;41.59;100490.27;105929;1256;65895;-53
2023/04/23 10:26:15;;;;;;;2.70;2.00;;;;;;;17.15;42.89;100572.92;105862;1259;73072;-54
2023/04/23 10:28:46;;;;;;;9.40;2.30;;;;;;;17.18;44.76;100677.41;105736;1259;61538;-53
2023/04/23 10:31:15;;;;;;;2.40;2.20;;;;;;;17.17;44.71;100687.54;105870;1259;59681;-53
2023/04/23 10:33:44;;;;;;;6.30;2.20;;;;;;;17.11;44.55;100689.05;105723;1259;74805;-54
2023/04/23 10:36:26;;;;;;;5.30;2.30;;;;;;;16.99;43.14;100610.89;105897;1258;65353;-53
2023/04/23 10:38:58;;;;;;;7.00;2.60;;;;;;;16.89;40.14;100435.45;105868;1255;73480;-53
2023/04/23 10:41:35;;;;;;;5.70;2.10;;;;;;;16.85;37.85;100288.20;105857;1254;61274;-54
2023/04/23 10:44:04;;;;;;;6.20;1.90;;;;;;;16.86;38.86;100345.31;105897;1255;62303;-53
2023/04/23 10:46:33;;;;;;;2.50;2.10;;;;;;;16.86;37.62;100282.39;105872;1256;75502;-53
2023/04/23 10:49:15;;;;;;;6.20;2.00;;;;;;;16.89;37.30;100245.50;105905;1254;65043;-53
2023/04/23 10:51:47;;;;;;;3.10;2.10;;;;;;;16.93;37.20;100243.39;105849;1254;73991;-55
2023/04/23 10:54:18;;;;;;;2.90;2.00;;;;;;;17.02;37.87;100298.39;105869;1257;61630;-55
2023/04/23 10:56:48;;;;;;;3.90;1.90;;;;;;;17.08;37.62;100273.35;105909;1255;61659;-55
2023/04/23 10:59:20;;;;;;;6.60;1.80;;;;;;;17.20;37.98;100309.39;105689;1259;74307;-55
2023/04/23 11:01:49;;;;;;;4.60;2.00;;;;;;;17.35;38.22;100333.08;105870;1256;64900;-54
2023/04/23 11:04:27;;;;;;;2.70;2.10;;;;;;;17.53;37.93;100313.92;105866;1254;73967;-54
2023/04/23 11:07:06;;;;;;;3.00;2.30;;;;;;;17.68;39.54;100404.95;106000;1254;61414;-55
2023/04/23 11:09:38;;;;;;;8.30;2.00;;;;;;;17.67;40.42;100471.48;105848;1257;61882;-54
2023/04/23 11:12:11;;;;;;;1.70;1.50;;;;;;;17.57;41.72;100556.56;105856;1257;73688;-54
2023/04/23 11:14:47;;;;;;;3.30;2.20;;;;;;;17.50;42.43;100600.14;105860;1254;65513;-55
2023/04/23 11:17:36;;;;;;;;;;;;;;;17.45;43.37;100659.49;105869;1257;73889;-59
2023/04/23 11:20:09;;;;;;;2.40;2.00;;;;;;;17.41;43.75;100684.62;105771;1257;62106;-58
2023/04/23 11:22:42;;;;;;;4.60;2.00;;;;;;;17.20;43.14;100655.36;105625;1257;61521;-54
2023/04/23 11:25:15;;;;;;;5.80;1.90;;;;;;;16.79;43.33;100667.28;105744;1257;74462;-54
2023/04/23 11:27:44;;;;;;;3.50;1.80;;;;;;;16.47;44.00;100717.88;105750;1260;65168;-57
2023/04/23 11:30:13;;;;;;;2.60;1.70;;;;;;;16.29;44.55;100746.77;105825;1253;74171;-53
2023/04/23 11:32:49;;;;;;;3.50;1.90;;;;;;;16.19;44.25;100730.94;105904;1257;60898;-53
2023/04/23 11:35:19;;;;;;;4.20;2.00;;;;;;;16.17;43.64;100712.72;105897;1254;60558;-53
2023/04/23 11:37:48;;;;;;;3.80;2.00;;;;;;;16.24;43.00;100672.25;105894;1257;74485;-52
2023/04/23 11:40:20;;;;;;;4.40;1.90;;;;;;;16.35;43.40;100689.42;105834;1257;65864;-53
2023/04/23 11:42:53;;;;;;;2.50;1.70;;;;;;;16.40;44.05;100722.82;105906;1254;74024;-52
2023/04/23 11:45:24;;;;;;;3.90;1.60;;;;;;;16.17;45.23;100785.16;105875;1257;60992;-53
2023/04/23 11:47:57;;;;;;;3.30;1.70;;;;;;;15.94;46.03;100833.82;105831;1254;60903;-52
2023/04/23 11:50:27;;;;;;;4.50;1.70;;;;;;;15.83;45.80;100825.66;105843;1258;73508;-53
2023/04/23 11:52:55;;;;;;;2.50;1.60;;;;;;;15.92;45.08;100776.65;105681;1260;65180;-55
2023/04/23 11:55:24;;;;;;;1.80;1.50;;;;;;;16.02;45.04;100768.96;105621;1260;73900;-55
2023/04/23 11:57:52;;;;;;;8.10;2.10;;;;;;;16.14;44.66;100735.15;105454;1254;61212;-54
2023/04/23 12:00:23;;;;;;;2.90;1.90;;;;;;;16.16;44.14;100708.77;105633;1254;61632;-56
2023/04/23 12:03:01;;;;;;;2.10;1.90;;;;;;;16.21;45.05;100757.14;105646;1254;74231;-58
2023/04/23 12:05:41;;;;;;;4.40;2.40;;;;;;;16.40;44.21;100715.35;105654;1260;65898;-54
2023/04/23 12:08:19;;;;;;;4.70;2.80;;;;;;;16.59;43.11;100632.56;105635;1254;73947;-53
2023/04/23 12:10:52;;;;;;;4.60;3.00;;;;;;;16.69;42.30;100601.67;105670;1256;61919;-52
2023/04/23 12:13:21;;;;;;;5.40;3.20;;;;;;;16.81;39.65;100446.61;105657;1254;61387;-53